Time;durP1;ratioP1;P1;durP2;ratioP2;P2;SDS_P1;SDS_P2;PMS_P1;PMS_P2;Temp;Humidity;BMP_temperature;BMP_pressure;BME280_temperature;BME280_humidity;BME280_pressure;Samples;Min_cycle;Max_cycle;Signal;HPM_P1;HPM_P2
2021/11/23 00:01:19;;;;;;;56.80;26.67;;;;;;;7.04;100.00;94941.03;5106425;27;20040;-74
2021/11/23 00:03:46;;;;;;;49.58;25.20;;;;;;;7.04;100.00;94938.44;5107111;27;20130;-74
2021/11/23 00:06:14;;;;;;;52.38;26.77;;;;;;;7.01;100.00;94933.66;5106586;27;20096;-75
2021/11/23 00:08:41;;;;;;;52.47;26.50;;;;;;;7.05;100.00;94932.22;5107493;27;20504;-74
2021/11/23 00:11:09;;;;;;;54.13;28.65;;;;;;;7.16;100.00;94933.38;5110427;27;20048;-74
2021/11/23 00:13:36;;;;;;;45.42;25.70;;;;;;;7.17;100.00;94939.38;5104575;27;20055;-75
2021/11/23 00:16:03;;;;;;;49.65;25.48;;;;;;;7.25;100.00;94939.91;5107318;27;20081;-74
2021/11/23 00:18:30;;;;;;;53.67;25.30;;;;;;;7.27;100.00;94939.72;5103755;28;20405;-75
2021/11/23 00:20:56;;;;;;;56.33;26.23;;;;;;;7.32;100.00;94937.28;5107965;27;20039;-74
2021/11/23 00:23:23;;;;;;;48.28;25.85;;;;;;;7.38;100.00;94946.84;5108954;27;20043;-75
2021/11/23 00:25:50;;;;;;;47.25;24.27;;;;;;;7.43;100.00;94948.78;5105502;27;20039;-74
2021/11/23 00:28:18;;;;;;;58.70;26.95;;;;;;;7.47;100.00;94955.97;5090312;28;20054;-74
2021/11/23 00:30:46;;;;;;;53.72;27.67;;;;;;;7.27;100.00;94944.88;5107841;27;20050;-74
2021/11/23 00:33:13;;;;;;;55.10;25.83;;;;;;;7.39;100.00;94958.78;5102570;27;20032;-74
2021/11/23 00:35:40;;;;;;;45.95;25.42;;;;;;;7.41;100.00;94954.19;5101325;27;20758;-74
2021/11/23 00:38:12;;;;;;;51.00;25.73;;;;;;;7.43;100.00;94953.97;5102044;27;20035;-74
2021/11/23 00:40:39;;;;;;;47.25;23.33;;;;;;;7.52;100.00;94962.31;5105076;27;20519;-75
2021/11/23 00:43:06;;;;;;;50.70;24.23;;;;;;;7.56;100.00;94953.09;5108261;27;20050;-75
2021/11/23 00:45:35;;;;;;;51.38;24.77;;;;;;;7.60;100.00;94954.31;5105332;27;20044;-74
2021/11/23 00:48:04;;;;;;;45.97;24.05;;;;;;;7.59;100.00;94955.28;5101960;27;20035;-75
2021/11/23 00:50:32;;;;;;;40.50;21.55;;;;;;;7.54;100.00;94947.34;5087393;27;20596;-75
2021/11/23 00:52:59;;;;;;;41.20;21.58;;;;;;;7.63;100.00;94951.28;5106287;27;20039;-76
2021/11/23 00:55:28;;;;;;;38.85;20.38;;;;;;;7.52;100.00;94941.56;5108637;27;20062;-76
2021/11/23 00:57:55;;;;;;;43.05;21.20;;;;;;;7.57;100.00;94954.72;5104315;27;20397;-76
2021/11/23 01:00:23;;;;;;;38.22;19.77;;;;;;;7.31;100.00;94956.44;5108056;27;20114;-76
2021/11/23 01:02:50;;;;;;;49.03;23.67;;;;;;;7.24;100.00;94948.69;5107168;27;20108;-76
2021/11/23 01:05:17;;;;;;;37.72;20.02;;;;;;;7.32;100.00;94939.88;5108313;27;20050;-76
2021/11/23 01:07:44;;;;;;;39.40;22.65;;;;;;;7.49;100.00;94947.16;5110447;27;20051;-76
2021/11/23 01:10:11;;;;;;;35.50;19.83;;;;;;;7.54;100.00;94947.34;5108736;27;20039;-76
2021/11/23 01:12:38;;;;;;;39.67;19.65;;;;;;;7.55;100.00;94952.31;5108797;27;20119;-77
2021/11/23 01:15:07;;;;;;;36.50;18.02;;;;;;;7.62;100.00;94953.06;5110456;27;20054;-78
2021/11/23 01:17:35;;;;;;;47.38;21.90;;;;;;;7.25;100.00;94952.88;5113369;27;20040;-77
2021/11/23 01:20:06;;;;;;;53.90;25.60;;;;;;;7.12;100.00;94942.56;5109118;27;20046;-77
2021/11/23 01:22:32;;;;;;;43.92;21.35;;;;;;;7.19;100.00;94947.72;5096038;28;20511;-78
2021/11/23 01:25:00;;;;;;;53.20;25.02;;;;;;;7.09;100.00;94953.34;5114825;27;20039;-77
2021/11/23 01:27:28;;;;;;;45.65;24.60;;;;;;;6.85;100.00;94940.09;5088912;27;20108;-77
2021/11/23 01:29:55;;;;;;;50.00;26.92;;;;;;;6.89;100.00;94958.59;5111436;27;20562;-77
2021/11/23 01:32:22;;;;;;;58.92;27.00;;;;;;;6.84;100.00;94935.09;5111315;27;20043;-78
2021/11/23 01:34:49;;;;;;;51.30;25.60;;;;;;;6.98;100.00;94962.53;5112798;27;20416;-77
2021/11/23 01:37:16;;;;;;;46.95;23.58;;;;;;;6.83;100.00;94962.00;5108039;27;20393;-77
2021/11/23 01:39:43;;;;;;;55.28;24.65;;;;;;;6.85;100.00;94936.72;5095539;28;20044;-78
2021/11/23 01:42:10;;;;;;;54.85;25.02;;;;;;;6.91;100.00;94951.41;5109698;27;20043;-77
2021/11/23 01:44:38;;;;;;;56.72;25.42;;;;;;;6.84;100.00;94950.63;5112848;27;20397;-78
2021/11/23 01:47:05;;;;;;;45.88;24.50;;;;;;;6.75;100.00;94942.28;5111140;27;20050;-77
2021/11/23 01:49:32;;;;;;;45.13;23.85;;;;;;;6.87;100.00;94955.41;5109452;27;20058;-77
2021/11/23 01:51:59;;;;;;;54.65;27.35;;;;;;;6.99;100.00;94958.97;5109216;27;20040;-76
2021/11/23 01:54:26;;;;;;;48.67;26.48;;;;;;;7.03;100.00;94960.13;5106808;27;20486;-77
2021/11/23 01:56:53;;;;;;;47.88;24.13;;;;;;;7.02;100.00;94953.38;5108362;27;20035;-76
2021/11/23 01:59:20;;;;;;;46.30;24.80;;;;;;;6.95;100.00;94957.78;5106528;27;20050;-77
2021/11/23 02:01:47;;;;;;;47.28;25.70;;;;;;;6.69;100.00;94949.09;5078055;27;20057;-76
2021/11/23 02:04:13;;;;;;;56.15;27.45;;;;;;;6.74;100.00;94955.47;5113800;27;20042;-77
2021/11/23 02:06:41;;;;;;;57.63;27.80;;;;;;;6.59;100.00;94948.72;5114864;27;20034;-77
2021/11/23 02:09:07;;;;;;;68.70;31.58;;;;;;;6.73;100.00;94959.03;5117706;27;20046;-76
2021/11/23 02:11:34;;;;;;;56.30;26.55;;;;;;;6.69;100.00;94954.25;5113373;27;20108;-76
2021/11/23 02:14:03;;;;;;;48.05;25.92;;;;;;;6.63;100.00;94965.44;5107769;27;20739;-76
2021/11/23 02:16:31;;;;;;;55.35;27.85;;;;;;;6.45;100.00;94957.53;5109736;27;20096;-77
2021/11/23 02:18:58;;;;;;;60.33;28.50;;;;;;;6.62;100.00;94958.66;5112381;27;20035;-77
2021/11/23 02:21:25;;;;;;;61.30;32.17;;;;;;;6.78;100.00;94972.19;5107373;27;20054;-76
2021/11/23 02:23:52;;;;;;;55.30;28.65;;;;;;;6.89;100.00;94968.94;5113633;27;20497;-76
2021/11/23 02:26:19;;;;;;;58.20;30.17;;;;;;;6.98;100.00;94967.72;5114689;27;20519;-76
2021/11/23 02:28:46;;;;;;;58.65;30.92;;;;;;;7.08;100.00;94957.72;5094605;28;20851;-76
2021/11/23 02:31:13;;;;;;;53.50;27.35;;;;;;;7.11;100.00;94960.91;5111861;28;20040;-76
2021/11/23 02:33:40;;;;;;;53.92;29.90;;;;;;;7.18;100.00;94953.91;5115221;28;20036;-76
2021/11/23 02:36:09;;;;;;;50.95;27.25;;;;;;;7.21;100.00;94953.50;5106003;28;20501;-75
2021/11/23 02:38:38;;;;;;;54.45;26.98;;;;;;;7.29;100.00;94953.25;5106579;28;20505;-76
2021/11/23 02:41:08;;;;;;;52.40;27.63;;;;;;;7.31;100.00;94953.03;5111875;27;20043;-76
2021/11/23 02:43:36;;;;;;;47.53;26.08;;;;;;;7.16;100.00;94942.97;5098320;27;20047;-76
2021/11/23 02:46:03;;;;;;;52.50;27.52;;;;;;;7.26;100.00;94954.47;5117451;27;20717;-76
2021/11/23 02:48:30;;;;;;;46.45;25.20;;;;;;;7.19;100.00;94943.34;5117532;27;20039;-76
2021/11/23 02:51:11;;;;;;;47.67;25.17;;;;;;;7.30;100.00;94959.25;5114215;27;20047;-76
2021/11/23 02:53:38;;;;;;;42.55;22.45;;;;;;;7.15;100.00;94936.19;5091558;27;20123;-76
2021/11/23 02:56:06;;;;;;;47.95;25.73;;;;;;;7.20;100.00;94959.66;5110775;27;20066;-76
2021/11/23 02:58:33;;;;;;;41.75;22.13;;;;;;;7.13;100.00;94961.50;5113021;27;20043;-76
2021/11/23 03:01:05;;;;;;;42.90;22.88;;;;;;;7.04;100.00;94959.16;5114718;27;20043;-77
2021/11/23 03:03:32;;;;;;;56.15;27.95;;;;;;;6.93;100.00;94959.75;5095977;27;20067;-77
2021/11/23 03:05:59;;;;;;;51.72;25.83;;;;;;;6.90;100.00;94952.44;5113357;27;20038;-76
2021/11/23 03:08:26;;;;;;;50.55;27.17;;;;;;;6.99;100.00;94958.19;5114365;27;20395;-77
2021/11/23 03:10:53;;;;;;;48.15;24.48;;;;;;;7.02;100.00;94958.56;5110718;27;20412;-76
2021/11/23 03:13:20;;;;;;;45.60;24.38;;;;;;;7.12;100.00;94962.50;5115868;27;20035;-77
2021/11/23 03:15:47;;;;;;;43.92;22.95;;;;;;;7.07;100.00;94961.31;5115296;27;20051;-76
2021/11/23 03:18:15;;;;;;;44.45;22.83;;;;;;;7.08;100.00;94962.91;5119228;27;20047;-77
2021/11/23 03:20:44;;;;;;;46.78;24.45;;;;;;;7.03;100.00;94964.53;5112679;27;20044;-76
2021/11/23 03:23:12;;;;;;;44.22;23.92;;;;;;;7.01;100.00;94971.72;5095220;27;20035;-76
2021/11/23 03:25:40;;;;;;;72.40;33.40;;;;;;;7.04;100.00;94955.75;5114449;27;20428;-77
2021/11/23 03:28:07;;;;;;;59.28;28.60;;;;;;;7.15;100.00;94968.06;5111716;27;20043;-77
2021/11/23 03:30:35;;;;;;;47.00;25.30;;;;;;;7.16;100.00;94968.84;5117078;27;20500;-77
2021/11/23 03:33:06;;;;;;;51.65;25.33;;;;;;;7.22;100.00;94975.78;5111923;27;20035;-77
2021/11/23 03:35:35;;;;;;;51.28;24.85;;;;;;;7.29;100.00;94984.34;5095215;27;20109;-77
2021/11/23 03:38:04;;;;;;;46.15;23.10;;;;;;;7.17;100.00;94975.66;5119170;27;20039;-77
2021/11/23 03:40:33;;;;;;;49.13;26.27;;;;;;;7.18;100.00;94982.41;5097117;27;20047;-77
2021/11/23 03:43:01;;;;;;;47.22;24.42;;;;;;;7.08;100.00;94973.28;5101966;27;20127;-77
2021/11/23 03:45:29;;;;;;;46.45;26.20;;;;;;;7.20;100.00;94977.81;5115259;27;21547;-77
2021/11/23 03:47:58;;;;;;;50.97;27.83;;;;;;;7.22;100.00;94973.22;5116303;27;20909;-77
2021/11/23 03:50:27;;;;;;;55.42;27.45;;;;;;;7.20;100.00;94972.63;5114395;27;20442;-77
2021/11/23 03:52:57;;;;;;;54.10;27.83;;;;;;;7.17;100.00;94975.66;5113579;27;20044;-77
2021/11/23 03:55:25;;;;;;;54.85;29.58;;;;;;;7.28;100.00;94982.75;5098169;27;20500;-77
2021/11/23 03:57:53;;;;;;;49.58;25.77;;;;;;;7.25;100.00;94980.56;5097682;27;20051;-77
2021/11/23 04:00:21;;;;;;;54.83;25.98;;;;;;;7.28;100.00;94972.41;5107697;27;20528;-76
2021/11/23 04:02:49;;;;;;;49.53;27.88;;;;;;;7.30;100.00;94979.97;5112922;27;20047;-77
2021/11/23 04:05:17;;;;;;;54.75;27.02;;;;;;;7.31;100.00;94987.53;5107697;27;20527;-77
2021/11/23 04:07:44;;;;;;;54.13;28.63;;;;;;;7.26;100.00;94977.00;5107034;27;20041;-77
2021/11/23 04:10:13;;;;;;;48.15;25.85;;;;;;;7.27;100.00;94981.16;5093561;28;20047;-77
2021/11/23 04:12:40;;;;;;;54.53;27.67;;;;;;;7.26;100.00;94984.78;5110591;27;20047;-77
2021/11/23 04:15:08;;;;;;;50.65;25.13;;;;;;;7.26;100.00;94984.78;5094510;27;20386;-76
2021/11/23 04:17:35;;;;;;;47.50;25.00;;;;;;;7.32;100.00;94989.13;5108614;27;20050;-76
2021/11/23 04:20:05;;;;;;;49.03;25.90;;;;;;;7.32;100.00;94989.13;5109835;27;20058;-76
2021/11/23 04:22:33;;;;;;;44.72;25.80;;;;;;;7.30;100.00;94980.75;5118002;27;20035;-77
2021/11/23 04:24:59;;;;;;;54.78;25.90;;;;;;;7.41;100.00;94993.06;5112594;27;20374;-77
2021/11/23 04:27:28;;;;;;;55.00;26.45;;;;;;;7.46;100.00;94995.03;5108336;27;20104;-76
2021/11/23 04:29:54;;;;;;;46.08;24.23;;;;;;;7.39;100.00;94974.34;5119456;27;20037;-76
2021/11/23 04:32:21;;;;;;;47.60;25.95;;;;;;;7.52;100.00;94988.22;5110170;27;20109;-76
2021/11/23 04:34:48;;;;;;;48.85;24.83;;;;;;;7.44;100.00;94979.69;5108292;27;20043;-76
2021/11/23 04:37:15;;;;;;;54.85;27.77;;;;;;;7.53;100.00;94989.84;5116043;27;20032;-76
2021/11/23 04:39:43;;;;;;;51.95;26.77;;;;;;;7.49;100.00;94989.44;5117060;27;20054;-77
2021/11/23 04:42:10;;;;;;;48.25;24.23;;;;;;;7.41;100.00;94993.06;5112148;27;20047;-77
2021/11/23 04:44:37;;;;;;;49.90;25.02;;;;;;;7.44;100.00;95000.44;5114686;27;20039;-77
2021/11/23 04:47:04;;;;;;;49.20;24.20;;;;;;;7.39;100.00;95000.25;5114558;27;20499;-77
2021/11/23 04:49:30;;;;;;;111.25;57.47;;;;;;;7.10;100.00;94996.38;5090685;28;20417;-77
2021/11/23 04:52:02;;;;;;;93.63;45.90;;;;;;;6.98;100.00;95003.97;5113717;27;20035;-76
2021/11/23 04:54:41;;;;;;;73.60;35.53;;;;;;;6.81;100.00;94988.09;5110246;27;20043;-75
2021/11/23 04:57:10;;;;;;;52.35;29.30;;;;;;;6.98;100.00;95003.97;5091328;27;20040;-76
2021/11/23 04:59:41;;;;;;;54.72;27.70;;;;;;;6.82;100.00;94999.25;5071733;28;20211;-75
2021/11/23 05:02:12;;;;;;;50.97;27.33;;;;;;;6.94;100.00;95020.13;5080509;27;20039;-75
2021/11/23 05:04:43;;;;;;;52.65;26.13;;;;;;;6.93;100.00;95013.34;5103213;27;20159;-76
2021/11/23 05:07:12;;;;;;;59.85;29.05;;;;;;;6.98;100.00;95019.50;5093261;27;20097;-76
2021/11/23 05:09:45;;;;;;;60.05;32.03;;;;;;;6.93;100.00;95011.56;5112039;27;20038;-75
2021/11/23 05:12:14;;;;;;;62.03;33.92;;;;;;;7.00;100.00;95022.69;5114028;27;20043;-75
2021/11/23 05:14:40;;;;;;;59.28;31.25;;;;;;;6.78;100.00;95008.41;5097143;27;20035;-76
2021/11/23 05:17:07;;;;;;;62.55;32.20;;;;;;;6.97;100.00;95023.13;5114162;27;20504;-75
2021/11/23 05:19:34;;;;;;;59.28;30.27;;;;;;;7.08;100.00;95022.47;5094815;27;20095;-75
2021/11/23 05:22:03;;;;;;;57.78;30.17;;;;;;;7.19;100.00;95030.63;5111842;27;20415;-75
2021/11/23 05:24:31;;;;;;;58.10;31.30;;;;;;;7.22;100.00;95032.78;5113817;27;20565;-74
2021/11/23 05:26:57;;;;;;;61.58;29.45;;;;;;;7.26;100.00;95032.19;5108654;27;20043;-75
2021/11/23 05:29:24;;;;;;;60.50;31.23;;;;;;;7.26;100.00;95034.00;5109947;27;20040;-75
2021/11/23 05:31:51;;;;;;;58.45;30.15;;;;;;;7.29;100.00;95036.16;5111535;27;20031;-76
2021/11/23 05:34:18;;;;;;;49.28;26.17;;;;;;;7.36;100.00;95031.75;5108064;27;20054;-75
2021/11/23 05:36:46;;;;;;;51.90;26.50;;;;;;;7.17;100.00;95017.09;5093452;27;20045;-76
2021/11/23 05:39:13;;;;;;;56.03;29.05;;;;;;;7.11;100.00;95028.25;5107698;27;20040;-75
2021/11/23 05:41:41;;;;;;;50.75;28.80;;;;;;;7.08;100.00;95030.25;5093040;28;20047;-76
2021/11/23 05:44:09;;;;;;;62.55;31.92;;;;;;;7.15;100.00;95032.00;5117426;27;20726;-76
2021/11/23 05:46:37;;;;;;;65.22;35.90;;;;;;;7.13;100.00;95031.44;5097276;27;20142;-76
2021/11/23 05:49:05;;;;;;;59.67;31.95;;;;;;;7.15;100.00;95034.59;5092227;27;20043;-75
2021/11/23 05:51:32;;;;;;;52.08;29.50;;;;;;;7.23;100.00;95047.34;5106421;27;20089;-75
2021/11/23 05:53:59;;;;;;;48.42;25.85;;;;;;;7.30;100.00;95055.09;5114509;27;20031;-75
2021/11/23 05:56:26;;;;;;;55.17;27.20;;;;;;;7.29;100.00;95046.50;5110263;27;20089;-74
2021/11/23 05:58:53;;;;;;;57.03;28.83;;;;;;;7.33;100.00;95058.09;5114854;27;20051;-74
2021/11/23 06:01:20;;;;;;;50.65;27.48;;;;;;;7.22;100.00;95062.09;5106217;27;20035;-74
2021/11/23 06:03:47;;;;;;;60.95;30.27;;;;;;;7.03;100.00;95050.78;5093465;27;20047;-75
2021/11/23 06:06:14;;;;;;;54.50;27.75;;;;;;;6.98;100.00;95068.72;5117601;27;20051;-75
2021/11/23 06:08:41;;;;;;;48.08;26.83;;;;;;;6.83;100.00;95057.81;5105133;28;20051;-74
2021/11/23 06:11:08;;;;;;;66.68;31.05;;;;;;;6.79;100.00;95062.59;5111354;27;20044;-74
2021/11/23 06:13:35;;;;;;;59.85;33.30;;;;;;;6.82;100.00;95072.53;5103429;28;20044;-74
2021/11/23 06:16:02;;;;;;;67.35;35.78;;;;;;;6.97;100.00;95080.09;5106068;27;22475;-74
2021/11/23 06:18:29;;;;;;;102.65;46.40;;;;;;;7.11;100.00;95080.06;5102038;28;20044;-75
2021/11/23 06:20:56;;;;;;;95.97;47.20;;;;;;;7.24;100.00;95087.81;5122741;27;20040;-75
2021/11/23 06:23:24;;;;;;;91.65;47.38;;;;;;;7.12;100.00;95089.44;5109253;27;20805;-76
2021/11/23 06:25:54;;;;;;;89.25;48.08;;;;;;;7.00;100.00;95090.03;5096616;28;20058;-75
2021/11/23 06:28:23;;;;;;;82.95;44.20;;;;;;;6.80;100.00;95095.22;5109747;28;20424;-75
2021/11/23 06:30:50;;;;;;;84.90;39.22;;;;;;;6.91;100.00;95095.63;5111061;28;20038;-75
2021/11/23 06:33:17;;;;;;;70.85;37.70;;;;;;;6.89;100.00;95090.63;5107642;28;20040;-76
2021/11/23 06:35:44;;;;;;;77.85;41.35;;;;;;;6.82;100.00;95071.72;5087672;28;20048;-76
2021/11/23 06:38:12;;;;;;;81.55;44.63;;;;;;;6.98;100.00;95086.84;5107084;28;20054;-75
2021/11/23 06:40:39;;;;;;;85.10;44.88;;;;;;;6.97;100.00;95085.25;5096511;28;20066;-75
2021/11/23 06:43:07;;;;;;;76.78;39.17;;;;;;;7.02;100.00;95082.88;5111410;28;20047;-75
2021/11/23 06:45:36;;;;;;;82.40;41.33;;;;;;;7.28;100.00;95096.75;5105898;28;20046;-75
2021/11/23 06:48:04;;;;;;;80.43;41.42;;;;;;;7.10;100.00;95099.97;5111614;28;20044;-75
2021/11/23 06:50:33;;;;;;;71.57;38.15;;;;;;;7.07;100.00;95101.16;5108472;28;20035;-76
2021/11/23 06:53:01;;;;;;;75.82;41.75;;;;;;;7.15;100.00;95101.94;5091643;28;20058;-75
2021/11/23 06:55:28;;;;;;;72.18;39.63;;;;;;;7.19;100.00;95110.94;5105952;28;20043;-76
2021/11/23 06:57:55;;;;;;;81.18;38.83;;;;;;;7.16;100.00;95108.72;5109856;28;20031;-76
2021/11/23 07:00:22;;;;;;;81.65;44.90;;;;;;;7.00;100.00;95110.75;5104301;28;20504;-76
2021/11/23 07:02:49;;;;;;;78.55;40.53;;;;;;;7.01;100.00;95122.69;5110632;28;20469;-76
2021/11/23 07:05:16;;;;;;;77.78;40.03;;;;;;;7.07;100.00;95119.28;5107713;28;20043;-75
2021/11/23 07:07:43;;;;;;;71.03;34.08;;;;;;;7.10;100.00;95125.09;5109754;28;20047;-75
2021/11/23 07:10:12;;;;;;;63.72;32.92;;;;;;;7.14;100.00;95132.25;5107000;28;20555;-76
2021/11/23 07:13:02;;;;;;;65.90;32.55;;;;;;;7.36;100.00;95134.59;5114112;28;20047;-76
2021/11/23 07:15:29;;;;;;;66.70;34.85;;;;;;;7.53;100.00;95129.78;5112081;28;20047;-76
2021/11/23 07:17:56;;;;;;;74.35;38.80;;;;;;;7.53;100.00;95129.78;5092611;28;20038;-76
2021/11/23 07:20:23;;;;;;;95.15;45.30;;;;;;;7.66;100.00;95137.50;5105773;28;20058;-75
2021/11/23 07:22:50;;;;;;;87.15;44.97;;;;;;;7.72;100.00;95139.28;5111590;28;20447;-76
2021/11/23 07:25:17;;;;;;;77.68;39.47;;;;;;;7.80;100.00;95140.88;5107549;27;20144;-76
2021/11/23 07:27:43;;;;;;;81.30;44.00;;;;;;;7.75;100.00;95146.66;5111500;27;20060;-76
2021/11/23 07:30:12;;;;;;;74.70;37.90;;;;;;;7.72;100.00;95149.66;5114370;27;20066;-76
2021/11/23 07:32:39;;;;;;;74.25;35.58;;;;;;;7.55;100.00;95132.97;5112038;27;20037;-76
2021/11/23 07:35:06;;;;;;;65.13;34.90;;;;;;;7.62;100.00;95164.84;5096478;27;20043;-76
2021/11/23 07:37:40;;;;;;;65.80;34.75;;;;;;;7.56;100.00;95163.88;5097895;27;20043;-76
2021/11/23 07:40:09;;;;;;;63.15;35.88;;;;;;;7.60;100.00;95161.66;5117714;27;20054;-76
2021/11/23 07:42:36;;;;;;;66.13;35.55;;;;;;;7.62;100.00;95170.03;5115334;27;20047;-76
2021/11/23 07:45:03;;;;;;;65.80;35.47;;;;;;;7.60;100.00;95174.63;5111638;27;20787;-76
2021/11/23 07:47:30;;;;;;;73.97;35.53;;;;;;;7.66;100.00;95177.19;5118788;27;20097;-76
2021/11/23 07:49:57;;;;;;;76.70;40.25;;;;;;;7.68;100.00;95189.16;5112703;27;20870;-76
2021/11/23 07:52:24;;;;;;;64.43;34.63;;;;;;;7.77;100.00;95193.91;5115467;27;20062;-76
2021/11/23 07:54:51;;;;;;;63.92;34.35;;;;;;;7.64;100.00;95192.16;5094087;27;20043;-76
2021/11/23 07:57:19;;;;;;;89.25;40.72;;;;;;;7.55;100.00;95169.25;5110276;27;20039;-76
2021/11/23 07:59:46;;;;;;;82.18;40.67;;;;;;;7.77;100.00;95199.09;5118974;27;20049;-76
2021/11/23 08:02:13;;;;;;;77.65;36.63;;;;;;;7.61;100.00;95204.72;5111008;27;20047;-75
2021/11/23 08:04:40;;;;;;;85.68;40.90;;;;;;;7.55;100.00;95215.91;5115219;27;20039;-76
2021/11/23 08:07:07;;;;;;;74.13;38.70;;;;;;;7.51;100.00;95204.34;5105513;27;20059;-76
2021/11/23 08:09:34;;;;;;;78.40;38.65;;;;;;;7.53;100.00;95204.97;5102181;27;20501;-76
2021/11/23 08:12:02;;;;;;;63.28;32.50;;;;;;;7.47;100.00;95209.94;5079305;28;20757;-75
2021/11/23 08:14:29;;;;;;;65.05;31.98;;;;;;;7.30;100.00;95213.16;5106078;27;20047;-75
2021/11/23 08:16:57;;;;;;;58.13;30.83;;;;;;;7.17;100.00;95204.38;5112492;27;20058;-76
2021/11/23 08:19:24;;;;;;;52.40;29.30;;;;;;;7.13;100.00;95217.91;5103906;27;20066;-77
2021/11/23 08:21:51;;;;;;;61.42;31.17;;;;;;;7.26;100.00;95225.72;5108365;27;20051;-76
2021/11/23 08:24:18;;;;;;;62.47;33.95;;;;;;;7.34;100.00;95216.94;5109462;27;20185;-76
2021/11/23 08:26:44;;;;;;;67.55;37.08;;;;;;;7.55;100.00;95221.09;5110900;27;20054;-77
2021/11/23 08:29:11;;;;;;;79.63;38.33;;;;;;;7.64;100.00;95223.25;5114234;27;20043;-78
2021/11/23 08:31:38;;;;;;;79.65;39.45;;;;;;;7.80;100.00;95214.25;5092134;27;20061;-77
2021/11/23 08:34:05;;;;;;;79.05;39.90;;;;;;;7.93;100.00;95220.41;5107890;27;20047;-77
2021/11/23 08:36:34;;;;;;;79.93;40.92;;;;;;;8.08;100.00;95231.31;5112221;27;20036;-78
2021/11/23 08:39:04;;;;;;;61.35;33.55;;;;;;;8.07;100.00;95224.56;5093417;27;20130;-78
2021/11/23 08:41:32;;;;;;;68.00;34.40;;;;;;;8.06;100.00;95215.16;5104142;27;20100;-77
2021/11/23 08:43:59;;;;;;;69.60;34.63;;;;;;;8.08;100.00;95210.56;5077007;28;20055;-76
2021/11/23 08:46:26;;;;;;;63.42;34.00;;;;;;;8.15;100.00;95224.31;5087593;27;20058;-78
2021/11/23 08:48:53;;;;;;;62.75;32.05;;;;;;;8.28;100.00;95214.88;5092870;27;20058;-77
2021/11/23 08:51:24;;;;;;;68.80;33.25;;;;;;;8.29;100.00;95213.88;5094211;27;20067;-77
2021/11/23 08:53:51;;;;;;;67.93;34.47;;;;;;;8.28;100.00;95210.47;5116489;27;20044;-76
2021/11/23 08:56:19;;;;;;;68.07;34.47;;;;;;;8.34;100.00;95216.66;5094200;27;20039;-77
2021/11/23 08:58:50;;;;;;;52.95;29.02;;;;;;;8.48;100.00;95220.81;5109290;27;20708;-75
2021/11/23 09:01:20;;;;;;;53.97;28.42;;;;;;;8.43;100.00;95218.03;5087938;28;20054;-75
2021/11/23 09:03:47;;;;;;;50.95;27.65;;;;;;;8.38;100.00;95210.06;5113335;27;20044;-76
2021/11/23 09:06:14;;;;;;;55.05;31.08;;;;;;;8.48;100.00;95205.25;5111325;27;20130;-76
2021/11/23 09:09:05;;;;;;;41.00;24.52;;;;;;;8.44;100.00;95209.25;5104660;27;20059;-74
2021/11/23 09:11:28;;;;;;;51.88;25.30;;;;;;;8.54;100.00;95224.38;5108912;27;20465;-73
2021/11/23 09:13:55;;;;;;;61.95;28.88;;;;;;;8.48;100.00;95213.03;5108153;27;20123;-79
2021/11/23 09:16:23;;;;;;;61.67;30.35;;;;;;;8.50;100.00;95213.63;5109308;27;20137;-77
2021/11/23 09:18:50;;;;;;;62.75;27.58;;;;;;;8.67;100.00;95228.69;5087976;28;20052;-78
2021/11/23 09:21:18;;;;;;;117.18;42.05;;;;;;;8.51;100.00;95215.19;5091180;27;20035;-78
2021/11/23 09:23:45;;;;;;;68.72;34.30;;;;;;;8.59;100.00;95227.94;5116045;27;20039;-81
2021/11/23 09:26:12;;;;;;;64.88;28.88;;;;;;;8.46;100.00;95224.59;5117904;27;20042;-80
2021/11/23 09:28:39;;;;;;;85.80;33.63;;;;;;;8.39;100.00;95222.00;5114517;27;20579;-80
2021/11/23 09:31:06;;;;;;;36.55;20.92;;;;;;;8.46;100.00;95222.81;5115127;27;20096;-80
2021/11/23 09:33:33;;;;;;;27.42;15.15;;;;;;;8.36;100.00;95206.88;5114064;27;20039;-79
2021/11/23 09:36:01;;;;;;;29.20;16.45;;;;;;;8.37;100.00;95203.25;5110934;27;20401;-80
2021/11/23 09:38:28;;;;;;;42.17;17.40;;;;;;;8.51;100.00;95209.22;5099982;27;20043;-80
2021/11/23 09:40:55;;;;;;;31.63;15.30;;;;;;;8.50;100.00;95198.03;5099052;27;20078;-80
2021/11/23 09:43:22;;;;;;;59.53;19.40;;;;;;;8.65;100.00;95220.31;5092700;27;20050;-80
2021/11/23 09:45:49;;;;;;;50.30;18.15;;;;;;;8.59;100.00;95222.75;5114783;27;20625;-78
2021/11/23 09:48:18;;;;;;;75.75;23.67;;;;;;;8.60;100.00;95219.13;5091198;27;20039;-76
2021/11/23 09:50:44;;;;;;;38.20;14.75;;;;;;;8.56;100.00;95222.38;5109146;27;20050;-78
2021/11/23 09:53:14;;;;;;;23.05;14.02;;;;;;;8.59;100.00;95222.75;5089089;27;20043;-77
2021/11/23 09:55:42;;;;;;;43.08;16.75;;;;;;;8.44;100.00;95204.03;5110233;27;20058;-79
2021/11/23 09:58:10;;;;;;;29.52;15.77;;;;;;;8.49;100.00;95217.19;5113541;27;20684;-77
2021/11/23 10:00:40;;;;;;;25.45;14.73;;;;;;;8.47;100.00;95214.03;5089321;27;20047;-76
2021/11/23 10:03:09;;;;;;;36.15;18.50;;;;;;;8.44;100.00;95219.63;5112920;27;20158;-76
2021/11/23 10:05:39;;;;;;;44.60;19.02;;;;;;;8.50;100.00;95218.81;5110493;27;20042;-75
2021/11/23 10:08:18;;;;;;;26.13;14.90;;;;;;;8.47;100.00;95223.63;5109794;27;20515;-75
2021/11/23 10:10:54;;;;;;;26.48;14.00;;;;;;;8.44;100.00;95213.63;5106529;27;20047;-77
2021/11/23 10:13:24;;;;;;;30.90;13.73;;;;;;;8.42;100.00;95219.03;5107572;27;20466;-76
2021/11/23 10:15:53;;;;;;;24.25;14.15;;;;;;;8.41;100.00;95220.81;5114289;27;20678;-76
2021/11/23 10:19:06;;;;;;;26.52;13.80;;;;;;;8.49;100.00;95212.00;5105848;27;21119;-76
2021/11/23 10:21:33;;;;;;;28.75;13.98;;;;;;;8.48;100.00;95225.19;5108139;27;20066;-76
2021/11/23 10:24:16;;;;;;;36.13;16.02;;;;;;;8.57;100.00;95224.75;5089754;28;20047;-79
2021/11/23 10:26:44;;;;;;;38.85;18.67;;;;;;;8.55;100.00;95200.81;5089303;28;20031;-76
2021/11/23 10:29:15;;;;;;;27.08;15.85;;;;;;;8.80;100.00;95233.81;5093961;28;20127;-77
2021/11/23 10:31:45;;;;;;;32.30;18.00;;;;;;;8.54;100.00;95225.16;5100903;28;20056;-77
2021/11/23 10:34:15;;;;;;;43.40;23.83;;;;;;;8.54;100.00;95238.16;5102472;28;20123;-77
2021/11/23 10:36:44;;;;;;;39.70;22.48;;;;;;;8.52;100.00;95234.97;5111182;27;20048;-76
2021/11/23 10:39:17;;;;;;;34.45;22.08;;;;;;;8.49;100.00;95230.19;5106223;28;20042;-77
2021/11/23 10:41:50;;;;;;;27.95;16.15;;;;;;;8.44;100.00;95224.81;5104168;28;20032;-76
2021/11/23 10:44:20;;;;;;;27.25;16.33;;;;;;;8.45;100.00;95226.41;5101680;28;20050;-74
2021/11/23 10:46:53;;;;;;;24.10;13.13;;;;;;;8.48;100.00;95220.81;5105861;28;20036;-74
2021/11/23 10:49:33;;;;;;;21.08;13.70;;;;;;;8.43;100.00;95215.44;5097278;28;20051;-72
2021/11/23 10:52:02;;;;;;;20.05;12.35;;;;;;;8.50;100.00;95223.19;5104098;28;20035;-76
2021/11/23 10:54:32;;;;;;;20.73;13.18;;;;;;;8.51;100.00;95209.22;5113157;28;20519;-77
2021/11/23 10:57:10;;;;;;;25.45;15.63;;;;;;;8.60;100.00;95216.53;5112896;28;20067;-75
2021/11/23 10:59:39;;;;;;;23.70;14.15;;;;;;;8.83;100.00;95223.00;5112401;28;20432;-76
2021/11/23 11:02:07;;;;;;;16.77;10.85;;;;;;;8.92;100.00;95221.75;5107842;27;20044;-76
2021/11/23 11:04:39;;;;;;;21.50;11.90;;;;;;;8.80;100.00;95233.81;5109703;27;20043;-77
2021/11/23 11:07:07;;;;;;;17.40;11.13;;;;;;;8.66;100.00;95229.69;5109943;27;20046;-75
2021/11/23 11:09:35;;;;;;;26.00;13.98;;;;;;;8.79;100.00;95227.03;5121191;27;20038;-73
2021/11/23 11:12:03;;;;;;;18.50;12.05;;;;;;;8.66;100.00;95227.09;5111875;27;20077;-75
2021/11/23 11:14:36;;;;;;;21.98;11.25;;;;;;;8.48;100.00;95200.06;5115081;27;20067;-76
2021/11/23 11:17:09;;;;;;;16.30;10.63;;;;;;;8.69;100.00;95229.28;5112820;27;20050;-73
2021/11/23 11:19:51;;;;;;;18.17;11.75;;;;;;;8.76;100.00;95227.44;5116800;27;20049;-74
2021/11/23 11:22:23;;;;;;;19.48;11.45;;;;;;;8.72;100.00;95234.06;5119625;27;20051;-75